Time;durP1;ratioP1;P1;durP2;ratioP2;P2;SDS_P1;SDS_P2;PMS_P1;PMS_P2;Temp;Humidity;BMP_temperature;BMP_pressure;BME280_temperature;BME280_humidity;BME280_pressure;Samples;Min_cycle;Max_cycle;Signal;HPM_P1;HPM_P2
2022/01/15 00:00:01;;;;;;;19.33;6.95;;;3.10;85.70;;;;;;6054297;23;20113;-70
2022/01/15 00:02:28;;;;;;;16.17;5.95;;;3.10;85.70;;;;;;6052718;23;20330;-71
2022/01/15 00:05:21;;;;;;;11.90;4.45;;;3.10;85.70;;;;;;3158231;23;10281629;-70
2022/01/15 00:07:49;;;;;;;17.20;7.25;;;3.20;85.50;;;;;;4380265;23;10001513;-71
2022/01/15 00:10:20;;;;;;;16.65;5.90;;;3.20;85.40;;;;;;6053234;23;20027;-71
2022/01/15 00:12:54;;;;;;;14.20;5.28;;;3.20;85.60;;;;;;6053336;23;20027;-70
2022/01/15 00:15:26;;;;;;;16.08;6.25;;;3.10;85.60;;;;;;6051553;23;20127;-72
2022/01/15 00:18:06;;;;;;;14.43;6.18;;;3.20;85.70;;;;;;6050022;23;20027;-70
2022/01/15 00:20:33;;;;;;;14.30;6.10;;;3.20;85.70;;;;;;6049601;23;20423;-71
2022/01/15 00:23:01;;;;;;;18.50;6.35;;;3.10;85.70;;;;;;6051030;23;20029;-72
2022/01/15 00:25:33;;;;;;;13.55;7.00;;;3.20;85.70;;;;;;6050841;23;20019;-72
2022/01/15 00:28:00;;;;;;;15.13;5.40;;;3.20;85.60;;;;;;6051072;23;20029;-72
2022/01/15 00:30:30;;;;;;;15.10;6.50;;;3.20;85.60;;;;;;6051150;23;20033;-69
2022/01/15 00:32:57;;;;;;;17.08;6.18;;;3.10;85.60;;;;;;6052256;23;20034;-71
2022/01/15 00:35:26;;;;;;;14.20;5.97;;;3.10;85.50;;;;;;6053412;23;20019;-71
2022/01/15 00:37:53;;;;;;;15.48;6.55;;;3.10;85.60;;;;;;6051408;23;20027;-72
2022/01/15 00:40:21;;;;;;;16.05;6.90;;;3.20;85.50;;;;;;6078225;23;20458;-70
2022/01/15 00:42:49;;;;;;;14.18;6.65;;;3.20;85.50;;;;;;6054666;23;20086;-70
2022/01/15 00:45:21;;;;;;;15.90;7.00;;;3.10;85.40;;;;;;6055729;23;20033;-70
2022/01/15 00:47:49;;;;;;;12.80;5.43;;;3.20;85.40;;;;;;6051948;23;20053;-71
2022/01/15 00:50:16;;;;;;;17.70;7.25;;;3.20;85.40;;;;;;6056202;23;20031;-71
2022/01/15 00:52:43;;;;;;;18.42;6.13;;;3.20;85.30;;;;;;6056899;23;20023;-70
2022/01/15 00:55:12;;;;;;;11.43;5.00;;;3.20;85.40;;;;;;6056249;23;20038;-70
2022/01/15 00:57:40;;;;;;;14.02;4.38;;;3.20;85.30;;;;;;6055908;23;20022;-71
2022/01/15 01:00:11;;;;;;;14.65;4.95;;;3.20;85.30;;;;;;6055528;23;20118;-70
2022/01/15 01:02:44;;;;;;;14.73;5.65;;;3.20;85.30;;;;;;6057266;23;20054;-72
2022/01/15 01:05:12;;;;;;;14.32;5.50;;;3.20;85.20;;;;;;6056583;23;20229;-69
2022/01/15 01:07:39;;;;;;;12.27;5.03;;;3.20;85.20;;;;;;6055596;23;20022;-70
2022/01/15 01:10:21;;;;;;;12.65;5.47;;;3.20;85.20;;;;;;6056527;23;20027;-72
2022/01/15 01:13:12;;;;;;;11.80;5.18;;;3.20;85.20;;;;;;6056185;23;20474;-70
2022/01/15 01:22:14;;;;;;;12.65;5.35;;;3.20;85.40;;;;;;6056019;23;20230;-71
2022/01/15 01:24:30;;;;;;;12.32;5.03;;;3.20;85.40;;;;;;6052824;23;20110;-71
2022/01/15 01:27:00;;;;;;;11.45;4.38;;;3.20;85.40;;;;;;6052762;23;20501;-72
2022/01/15 01:29:38;;;;;;;10.88;4.90;;;3.20;85.40;;;;;;6055099;23;20034;-72
2022/01/15 01:32:11;;;;;;;12.13;4.53;;;3.30;85.40;;;;;;6049564;23;20432;-71
2022/01/15 01:34:45;;;;;;;9.35;4.47;;;3.30;85.40;;;;;;6051134;23;20114;-69
2022/01/15 01:37:25;;;;;;;7.88;3.92;;;3.20;85.40;;;;;;6051594;23;20027;-72
2022/01/15 01:40:05;;;;;;;9.18;4.03;;;3.30;85.30;;;;;;6046201;23;20023;-72
2022/01/15 01:42:41;;;;;;;10.38;4.25;;;3.30;85.30;;;;;;6050280;23;20231;-70
2022/01/15 01:45:12;;;;;;;9.48;4.55;;;3.20;85.30;;;;;;6052218;23;20110;-71
2022/01/15 01:47:41;;;;;;;12.07;4.70;;;3.20;85.30;;;;;;6051332;23;20027;-71
2022/01/15 01:50:17;;;;;;;10.50;3.83;;;3.30;85.30;;;;;;6051869;23;20416;-72
2022/01/15 01:52:46;;;;;;;11.63;4.35;;;3.30;85.30;;;;;;6051629;23;20023;-69
2022/01/15 01:55:14;;;;;;;12.77;4.65;;;3.30;85.30;;;;;;6051232;23;20476;-72
2022/01/15 01:57:48;;;;;;;14.32;5.32;;;3.30;85.30;;;;;;6051431;23;20078;-71
2022/01/15 02:00:18;;;;;;;9.60;3.67;;;3.30;85.30;;;;;;6048347;23;20026;-71
2022/01/15 02:02:53;;;;;;;10.40;4.47;;;3.30;85.20;;;;;;6051519;23;20244;-72
2022/01/15 02:05:20;;;;;;;12.32;5.18;;;3.30;85.20;;;;;;6052087;23;20023;-70
2022/01/15 02:07:47;;;;;;;13.82;4.78;;;3.30;85.30;;;;;;6073311;23;20041;-70
2022/01/15 02:10:17;;;;;;;10.27;4.13;;;3.30;85.30;;;;;;6052076;23;20509;-70
2022/01/15 02:12:45;;;;;;;13.23;4.78;;;3.30;85.30;;;;;;6051206;23;20018;-70
2022/01/15 02:15:15;;;;;;;11.63;4.50;;;3.30;85.30;;;;;;6054333;23;20580;-72
2022/01/15 02:17:43;;;;;;;10.50;4.32;;;3.30;85.30;;;;;;6052853;23;20478;-70
2022/01/15 02:20:34;;;;;;;9.95;4.80;;;3.30;85.40;;;;;;6053245;23;20037;-72
2022/01/15 02:25:50;;;;;;;9.95;4.57;;;3.30;85.40;;;;;;6051728;23;20027;-72
2022/01/15 02:28:20;;;;;;;10.82;4.65;;;3.30;85.40;;;;;;6015972;23;20022;-71
2022/01/15 02:30:53;;;;;;;5.56;3.11;;;3.30;85.40;;;;;;1789038;23;10150456;-70
2022/01/15 02:33:21;;;;;;;11.35;5.03;;;3.30;85.40;;;;;;4801646;23;10000938;-72
2022/01/15 02:35:49;;;;;;;14.77;5.97;;;3.30;85.40;;;;;;6053709;23;20062;-70
2022/01/15 02:38:16;;;;;;;12.48;4.68;;;3.30;85.50;;;;;;6053746;23;20019;-70
2022/01/15 02:40:43;;;;;;;9.95;4.57;;;3.30;85.40;;;;;;6050032;23;20092;-70
2022/01/15 02:43:15;;;;;;;9.43;4.00;;;3.30;85.50;;;;;;6052045;23;20067;-73
2022/01/15 02:45:44;;;;;;;10.63;4.00;;;3.40;85.50;;;;;;6053364;23;20062;-71
2022/01/15 02:48:13;;;;;;;8.45;4.15;;;3.40;85.50;;;;;;6054019;23;20034;-72
2022/01/15 02:50:41;;;;;;;10.05;4.00;;;3.40;85.50;;;;;;6052468;23;20027;-71
2022/01/15 02:53:11;;;;;;;8.70;3.70;;;3.40;85.40;;;;;;6051783;23;20026;-72
2022/01/15 02:55:42;;;;;;;7.75;3.15;;;3.40;85.50;;;;;;6052359;23;20019;-72
2022/01/15 02:58:09;;;;;;;6.07;3.10;;;3.40;85.50;;;;;;6052202;23;20755;-69
2022/01/15 03:00:36;;;;;;;11.43;4.43;;;3.40;85.50;;;;;;6050173;23;20432;-70
2022/01/15 03:03:03;;;;;;;6.28;2.67;;;3.40;85.50;;;;;;6055529;23;20027;-69
2022/01/15 03:05:30;;;;;;;7.75;3.15;;;3.40;85.40;;;;;;6056810;23;20038;-71
2022/01/15 03:07:57;;;;;;;8.38;3.13;;;3.40;85.40;;;;;;6055675;23;20035;-70
2022/01/15 03:10:25;;;;;;;5.60;2.30;;;3.40;85.40;;;;;;6053412;23;20116;-72
2022/01/15 03:12:54;;;;;;;7.13;2.83;;;3.40;85.40;;;;;;6051487;23;20029;-70
2022/01/15 03:15:21;;;;;;;7.45;2.60;;;3.50;85.30;;;;;;6054557;23;20030;-70
2022/01/15 03:17:49;;;;;;;8.02;3.28;;;3.40;85.30;;;;;;6049361;23;20027;-69
2022/01/15 03:20:18;;;;;;;5.72;2.47;;;3.50;85.30;;;;;;6049619;23;20030;-70
2022/01/15 03:22:45;;;;;;;7.05;2.50;;;3.40;85.20;;;;;;6074385;23;20448;-70
2022/01/15 03:25:13;;;;;;;7.47;2.95;;;3.50;85.20;;;;;;6049119;23;20171;-72
2022/01/15 03:27:41;;;;;;;7.97;2.72;;;3.50;85.20;;;;;;6052279;23;20513;-71
2022/01/15 03:30:10;;;;;;;5.60;2.22;;;3.40;85.20;;;;;;6049408;23;20019;-70
2022/01/15 03:32:42;;;;;;;5.07;1.95;;;3.40;85.10;;;;;;6048848;23;20033;-71
2022/01/15 03:35:11;;;;;;;6.18;2.83;;;3.40;85.10;;;;;;6054786;23;20033;-72
2022/01/15 03:37:38;;;;;;;5.65;2.60;;;3.50;85.10;;;;;;6077088;23;20027;-71
2022/01/15 03:40:06;;;;;;;5.47;2.05;;;3.50;85.00;;;;;;6050273;23;20430;-70
2022/01/15 03:42:33;;;;;;;4.38;2.03;;;3.50;85.00;;;;;;6050275;23;20102;-70
2022/01/15 03:45:02;;;;;;;5.35;2.25;;;3.40;85.00;;;;;;6055149;23;20023;-70
2022/01/15 03:47:30;;;;;;;2.90;1.60;;;3.40;85.00;;;;;;6051909;23;20520;-71
2022/01/15 03:49:57;;;;;;;3.25;1.67;;;3.50;85.00;;;;;;6050714;23;20031;-71
2022/01/15 03:52:24;;;;;;;3.83;1.60;;;3.50;84.90;;;;;;6052295;23;20023;-71
2022/01/15 03:54:51;;;;;;;3.40;1.25;;;3.50;85.00;;;;;;6052409;23;20023;-71
2022/01/15 03:57:18;;;;;;;4.38;2.03;;;3.50;85.00;;;;;;6052094;23;20455;-72
2022/01/15 03:59:45;;;;;;;3.30;1.65;;;3.50;85.00;;;;;;6054565;23;20029;-72
2022/01/15 04:02:13;;;;;;;5.97;2.10;;;3.50;85.10;;;;;;6050521;23;20026;-70
2022/01/15 04:04:48;;;;;;;3.85;1.60;;;3.50;85.00;;;;;;3938913;23;10021440;-72
2022/01/15 04:07:15;;;;;;;4.45;1.88;;;3.50;85.00;;;;;;2711519;23;10002063;-70
2022/01/15 04:09:42;;;;;;;3.42;1.58;;;3.50;85.00;;;;;;6054021;23;20373;-72
2022/01/15 04:12:09;;;;;;;5.65;2.20;;;3.50;85.10;;;;;;6052741;23;20023;-70
2022/01/15 04:14:36;;;;;;;2.67;1.55;;;3.50;85.20;;;;;;6051758;23;20493;-69
2022/01/15 04:17:04;;;;;;;4.53;1.88;;;3.50;85.10;;;;;;6053002;23;20033;-72
2022/01/15 04:19:33;;;;;;;5.13;2.25;;;3.50;85.10;;;;;;6052470;23;20448;-72
2022/01/15 04:22:00;;;;;;;4.68;1.63;;;3.50;85.10;;;;;;6054238;23;20023;-72
2022/01/15 04:24:27;;;;;;;3.53;1.73;;;3.50;85.10;;;;;;6053539;23;20083;-72
2022/01/15 04:26:54;;;;;;;4.10;1.33;;;3.50;85.10;;;;;;6053505;23;20477;-71
2022/01/15 04:29:21;;;;;;;3.90;1.20;;;3.50;85.10;;;;;;6054552;23;20361;-70
2022/01/15 04:31:49;;;;;;;3.20;0.98;;;3.50;85.20;;;;;;6055166;23;20097;-70
2022/01/15 04:34:19;;;;;;;3.35;1.25;;;3.50;85.20;;;;;;6055407;23;20056;-71
2022/01/15 04:36:47;;;;;;;6.18;1.95;;;3.50;85.20;;;;;;6077380;23;20185;-70
2022/01/15 04:39:14;;;;;;;5.15;2.00;;;3.50;85.20;;;;;;6051329;23;20158;-70
2022/01/15 04:41:41;;;;;;;5.80;1.85;;;3.50;85.20;;;;;;6057478;23;20023;-71
2022/01/15 04:44:09;;;;;;;5.32;2.20;;;3.60;85.20;;;;;;6058264;23;20022;-71
2022/01/15 04:46:37;;;;;;;7.32;2.60;;;3.60;85.10;;;;;;6052066;23;20433;-71
2022/01/15 04:49:04;;;;;;;6.10;2.45;;;3.60;85.10;;;;;;6054501;23;20022;-72
2022/01/15 04:51:31;;;;;;;3.95;2.10;;;3.60;85.20;;;;;;6056898;23;20026;-71
2022/01/15 04:53:59;;;;;;;8.43;2.22;;;3.60;85.20;;;;;;6056909;23;20027;-71
2022/01/15 04:56:27;;;;;;;7.60;2.40;;;3.60;85.10;;;;;;6053854;23;20019;-72
2022/01/15 04:58:54;;;;;;;7.55;2.90;;;3.60;85.20;;;;;;6053281;23;20382;-70
2022/01/15 05:01:21;;;;;;;7.40;2.53;;;3.60;85.20;;;;;;6053250;23;20046;-72
2022/01/15 05:03:48;;;;;;;6.47;2.92;;;3.60;85.20;;;;;;6054707;23;20339;-72
2022/01/15 05:06:16;;;;;;;5.18;2.17;;;3.60;85.40;;;;;;6055034;23;20026;-72
2022/01/15 05:08:45;;;;;;;6.45;2.80;;;3.60;85.40;;;;;;6077434;23;20022;-70
2022/01/15 05:11:20;;;;;;;6.00;3.13;;;3.60;85.50;;;;;;6055582;23;20041;-70
2022/01/15 05:13:49;;;;;;;6.90;3.03;;;3.60;85.60;;;;;;6054230;23;20377;-71
2022/01/15 05:16:16;;;;;;;6.68;2.90;;;3.60;85.60;;;;;;6055707;23;20454;-72
2022/01/15 05:18:43;;;;;;;6.95;2.95;;;3.50;85.60;;;;;;6054845;23;20027;-71
2022/01/15 05:21:10;;;;;;;7.25;2.53;;;3.60;85.60;;;;;;6053654;23;20045;-71
2022/01/15 05:23:37;;;;;;;4.72;1.92;;;3.60;85.60;;;;;;6051232;23;20045;-72
2022/01/15 05:26:04;;;;;;;5.68;2.50;;;3.60;85.70;;;;;;6052299;23;20049;-72
2022/01/15 05:28:32;;;;;;;6.70;3.03;;;3.60;85.60;;;;;;6054098;23;20023;-71
2022/01/15 05:30:59;;;;;;;7.65;3.03;;;3.60;85.70;;;;;;6052853;23;20023;-70
2022/01/15 05:33:26;;;;;;;6.10;2.53;;;3.60;85.70;;;;;;6054893;23;20025;-72
2022/01/15 05:35:53;;;;;;;7.55;2.83;;;3.60;85.70;;;;;;6056149;23;20421;-71
2022/01/15 05:38:20;;;;;;;5.28;2.60;;;3.60;85.70;;;;;;6056440;23;20091;-72
2022/01/15 05:40:47;;;;;;;7.57;2.55;;;3.60;85.70;;;;;;6058146;23;20101;-72
2022/01/15 05:43:14;;;;;;;5.90;2.75;;;3.60;85.70;;;;;;6054351;23;20029;-70
2022/01/15 05:45:42;;;;;;;6.95;3.08;;;3.60;85.80;;;;;;6056985;23;20023;-72
2022/01/15 05:48:09;;;;;;;9.25;3.42;;;3.60;85.80;;;;;;6056673;23;20031;-70
2022/01/15 05:50:36;;;;;;;7.93;3.50;;;3.60;85.80;;;;;;6055165;23;20101;-70
2022/01/15 05:53:03;;;;;;;5.40;2.67;;;3.60;85.80;;;;;;6057432;23;20019;-71
2022/01/15 05:55:30;;;;;;;5.57;3.00;;;3.60;85.80;;;;;;6058559;23;20458;-71
2022/01/15 05:57:57;;;;;;;7.53;3.80;;;3.60;85.90;;;;;;6057555;23;20522;-70
2022/01/15 06:00:24;;;;;;;5.10;2.50;;;3.60;85.80;;;;;;6076732;23;20493;-72
2022/01/15 06:02:52;;;;;;;8.98;3.28;;;3.60;85.90;;;;;;6057023;23;20341;-72
2022/01/15 06:05:29;;;;;;;7.80;2.75;;;3.60;85.90;;;;;;3991512;23;10022108;-70
2022/01/15 06:07:56;;;;;;;7.88;2.90;;;3.60;85.90;;;;;;3548841;23;10001923;-71
2022/01/15 06:10:23;;;;;;;6.72;2.75;;;3.60;85.90;;;;;;6057806;23;20023;-71
2022/01/15 06:12:50;;;;;;;5.53;2.40;;;3.60;85.90;;;;;;6057630;23;20031;-72
2022/01/15 06:15:17;;;;;;;5.53;2.78;;;3.60;86.00;;;;;;6057758;23;20030;-71
2022/01/15 06:17:44;;;;;;;5.22;2.15;;;3.60;86.00;;;;;;6057542;23;20023;-71
2022/01/15 06:20:15;;;;;;;3.95;2.03;;;3.60;86.00;;;;;;6056714;23;20027;-72
2022/01/15 06:22:42;;;;;;;4.55;1.92;;;3.70;86.00;;;;;;6057470;23;20027;-72
2022/01/15 06:25:10;;;;;;;6.85;2.20;;;3.60;86.00;;;;;;6057915;23;20035;-72
2022/01/15 06:27:38;;;;;;;6.10;2.22;;;3.60;86.10;;;;;;6056237;23;20026;-72
2022/01/15 06:30:06;;;;;;;6.95;2.30;;;3.60;86.10;;;;;;6057671;23;20031;-71
2022/01/15 06:32:36;;;;;;;5.65;2.33;;;3.70;86.00;;;;;;6056513;23;20454;-71
2022/01/15 06:35:05;;;;;;;5.57;2.42;;;3.70;86.10;;;;;;6056072;23;20151;-71
2022/01/15 06:37:36;;;;;;;4.93;1.92;;;3.60;86.10;;;;;;6054798;23;20019;-70
2022/01/15 06:40:04;;;;;;;5.43;2.72;;;3.70;86.10;;;;;;6053549;23;20027;-70
2022/01/15 06:42:31;;;;;;;4.60;2.42;;;3.60;86.10;;;;;;6055731;23;20267;-71
2022/01/15 06:44:58;;;;;;;6.95;3.33;;;3.70;86.20;;;;;;6056224;23;20033;-72
2022/01/15 06:47:26;;;;;;;7.90;3.40;;;3.60;86.20;;;;;;6055895;23;20023;-70
2022/01/15 06:49:53;;;;;;;5.35;2.35;;;3.70;86.20;;;;;;6054779;23;20019;-71
2022/01/15 06:52:21;;;;;;;7.35;2.38;;;3.60;86.30;;;;;;6056225;23;20029;-73
2022/01/15 06:54:49;;;;;;;8.55;3.03;;;3.60;86.30;;;;;;6054776;23;20097;-71
2022/01/15 06:57:16;;;;;;;7.70;3.15;;;3.60;86.40;;;;;;6055576;23;20034;-71
2022/01/15 06:59:44;;;;;;;5.78;2.28;;;3.60;86.30;;;;;;6054904;23;20113;-72
2022/01/15 07:02:12;;;;;;;7.93;2.92;;;3.60;86.30;;;;;;6053422;23;20030;-71
2022/01/15 07:04:39;;;;;;;5.10;2.40;;;3.60;86.30;;;;;;6054859;23;20031;-71
2022/01/15 07:07:06;;;;;;;7.00;2.85;;;3.70;86.30;;;;;;6077962;23;20362;-70
2022/01/15 07:09:35;;;;;;;8.25;2.53;;;3.70;86.20;;;;;;6054304;23;20072;-71
2022/01/15 07:12:05;;;;;;;6.25;2.42;;;3.70;86.30;;;;;;6053648;23;20037;-71
2022/01/15 07:14:32;;;;;;;5.55;2.45;;;3.70;86.20;;;;;;6054772;23;20022;-70
2022/01/15 07:16:59;;;;;;;5.95;2.40;;;3.70;86.20;;;;;;6055939;23;20023;-72
2022/01/15 07:19:26;;;;;;;8.88;2.75;;;3.70;86.20;;;;;;6057619;23;20033;-71
2022/01/15 07:21:53;;;;;;;5.03;2.45;;;3.70;86.20;;;;;;6051550;23;20481;-72
2022/01/15 07:24:20;;;;;;;4.68;2.17;;;3.70;86.20;;;;;;6053803;23;20110;-71
2022/01/15 07:26:49;;;;;;;7.95;2.67;;;3.70;86.20;;;;;;6052731;23;20425;-71
2022/01/15 07:29:17;;;;;;;7.40;3.78;;;3.70;86.20;;;;;;6053184;23;20454;-71
2022/01/15 07:31:47;;;;;;;5.20;2.30;;;3.70;86.20;;;;;;6052791;23;20023;-71
2022/01/15 07:34:14;;;;;;;5.40;2.08;;;3.70;86.20;;;;;;6053095;23;20472;-71
2022/01/15 07:36:42;;;;;;;5.28;2.38;;;3.70;86.10;;;;;;6049935;23;20536;-71
2022/01/15 07:39:10;;;;;;;5.80;2.65;;;3.70;86.20;;;;;;6053528;23;20430;-70
2022/01/15 07:41:37;;;;;;;6.47;2.60;;;3.70;86.10;;;;;;6052792;23;20494;-70
2022/01/15 07:44:05;;;;;;;6.55;3.28;;;3.70;86.10;;;;;;6052077;23;20023;-71
2022/01/15 07:46:34;;;;;;;5.68;3.03;;;3.70;86.10;;;;;;6053571;23;20402;-72
2022/01/15 07:49:01;;;;;;;5.20;2.72;;;3.70;86.10;;;;;;6053892;23;20058;-72
2022/01/15 07:51:31;;;;;;;6.97;2.60;;;3.70;86.10;;;;;;6052814;23;20031;-70
2022/01/15 07:53:58;;;;;;;5.07;2.55;;;3.70;86.10;;;;;;6052699;23;20037;-69
2022/01/15 07:56:25;;;;;;;4.93;2.25;;;3.70;86.10;;;;;;6053496;23;20023;-72
2022/01/15 07:58:52;;;;;;;6.78;2.40;;;3.70;86.00;;;;;;6052876;23;20023;-71
2022/01/15 08:01:19;;;;;;;6.38;2.28;;;3.80;85.90;;;;;;6051193;23;20053;-71
2022/01/15 08:03:48;;;;;;;6.20;2.50;;;3.80;85.90;;;;;;6076438;23;20345;-71
2022/01/15 08:06:15;;;;;;;3.90;1.52;;;3.80;85.80;;;;;;6055023;23;20031;-71
2022/01/15 08:08:42;;;;;;;6.07;2.13;;;3.80;85.80;;;;;;6054727;23;20026;-70
2022/01/15 08:11:09;;;;;;;4.85;1.90;;;3.80;85.80;;;;;;6054805;23;20034;-70
2022/01/15 08:13:36;;;;;;;5.22;2.15;;;3.90;85.80;;;;;;6053610;23;20019;-71
2022/01/15 08:16:04;;;;;;;4.18;1.73;;;3.80;85.80;;;;;;6053399;23;20022;-72
2022/01/15 08:18:31;;;;;;;5.13;2.50;;;3.90;85.80;;;;;;6054255;23;20023;-71
2022/01/15 08:21:00;;;;;;;3.20;1.27;;;3.90;85.80;;;;;;6052577;23;20481;-70
2022/01/15 08:23:30;;;;;;;4.30;1.63;;;3.90;85.80;;;;;;6052362;23;20027;-71
2022/01/15 08:25:59;;;;;;;6.25;1.80;;;3.90;85.70;;;;;;2820865;23;10023894;-68
2022/01/15 08:28:26;;;;;;;4.47;2.03;;;3.90;85.70;;;;;;3546941;23;10001205;-72
2022/01/15 08:30:53;;;;;;;4.30;1.83;;;3.90;85.60;;;;;;6053550;23;20033;-72
2022/01/15 08:33:20;;;;;;;4.20;2.30;;;3.90;85.70;;;;;;6053540;23;20106;-71
2022/01/15 08:35:47;;;;;;;5.20;2.00;;;3.90;85.70;;;;;;6052235;23;20019;-70
2022/01/15 08:38:15;;;;;;;4.20;1.85;;;4.00;85.70;;;;;;6054216;23;20720;-70
2022/01/15 08:40:43;;;;;;;3.25;1.70;;;4.00;85.70;;;;;;6054242;23;20033;-70
2022/01/15 08:43:10;;;;;;;4.55;1.45;;;3.90;85.70;;;;;;6056985;23;20090;-72
2022/01/15 08:45:38;;;;;;;2.45;1.25;;;4.00;85.60;;;;;;6055154;23;20030;-72
2022/01/15 08:48:08;;;;;;;4.22;1.38;;;4.00;85.60;;;;;;6054087;23;20023;-72
2022/01/15 08:50:36;;;;;;;3.67;1.50;;;4.00;85.60;;;;;;6053188;23;20027;-72
2022/01/15 08:53:04;;;;;;;2.65;1.15;;;4.10;85.60;;;;;;6055563;23;20483;-72
2022/01/15 08:55:33;;;;;;;1.42;0.70;;;4.10;85.60;;;;;;6053550;23;20031;-70
2022/01/15 08:58:00;;;;;;;1.52;0.85;;;4.10;85.50;;;;;;6055282;23;20045;-72
2022/01/15 09:00:29;;;;;;;2.20;0.87;;;4.10;85.50;;;;;;6053515;23;20450;-75
2022/01/15 09:02:56;;;;;;;9.82;2.70;;;4.20;85.50;;;;;;6054276;23;20027;-75
2022/01/15 09:05:24;;;;;;;8.63;2.88;;;4.20;85.50;;;;;;6054389;23;20022;-75
2022/01/15 09:07:52;;;;;;;6.57;2.10;;;4.20;85.40;;;;;;6054268;23;20102;-74
2022/01/15 09:10:19;;;;;;;4.47;1.60;;;4.20;85.40;;;;;;6055089;23;20034;-74
2022/01/15 09:12:47;;;;;;;4.10;1.33;;;4.20;85.40;;;;;;6054503;23;20070;-75
2022/01/15 09:15:16;;;;;;;2.80;1.15;;;4.20;85.30;;;;;;6054693;23;20110;-75
2022/01/15 09:17:43;;;;;;;2.83;0.90;;;4.20;85.40;;;;;;6054133;23;20432;-73
2022/01/15 09:20:11;;;;;;;2.28;1.10;;;4.20;85.40;;;;;;6054909;23;20051;-75
2022/01/15 09:22:39;;;;;;;3.10;1.55;;;4.30;85.40;;;;;;6054132;23;20030;-75
2022/01/15 09:25:07;;;;;;;3.83;1.85;;;4.30;85.40;;;;;;6055155;23;20101;-74
2022/01/15 09:30:20;;;;;;;3.20;1.17;;;4.30;85.40;;;;;;6055296;23;20030;-75
2022/01/15 09:32:50;;;;;;;1.75;1.02;;;4.30;85.20;;;;;;6053765;23;20584;-76
2022/01/15 09:35:20;;;;;;;2.83;1.08;;;4.40;85.20;;;;;;6053988;23;20275;-76
2022/01/15 09:37:49;;;;;;;1.65;0.75;;;4.40;85.10;;;;;;6054684;23;20027;-73
2022/01/15 09:40:18;;;;;;;2.13;1.20;;;4.40;85.10;;;;;;6054394;23;20084;-76
2022/01/15 09:42:47;;;;;;;3.97;1.40;;;4.40;85.10;;;;;;6053781;23;20350;-74
2022/01/15 09:45:15;;;;;;;2.85;1.15;;;4.40;85.00;;;;;;6052430;23;20109;-75
2022/01/15 09:47:44;;;;;;;2.50;1.10;;;4.40;85.00;;;;;;6054329;23;20027;-75
2022/01/15 09:50:13;;;;;;;2.05;1.02;;;4.50;85.00;;;;;;6055049;23;20029;-75
2022/01/15 09:52:41;;;;;;;1.58;0.77;;;4.50;85.00;;;;;;6051861;23;20051;-75
2022/01/15 09:55:10;;;;;;;1.60;0.70;;;4.50;84.90;;;;;;6052274;23;20029;-72
2022/01/15 09:57:41;;;;;;;2.58;1.10;;;4.50;84.90;;;;;;6051327;23;20033;-73
2022/01/15 10:00:14;;;;;;;1.75;0.90;;;4.50;84.90;;;;;;6051809;23;20471;-74
2022/01/15 10:02:43;;;;;;;2.72;1.23;;;4.60;84.80;;;;;;6051830;23;20027;-75
2022/01/15 10:05:31;;;;;;;1.99;1.13;;;4.60;84.90;;;;;;3581224;23;10218559;-75
2022/01/15 10:08:00;;;;;;;2.65;1.10;;;4.60;84.90;;;;;;4383777;23;10001201;-73
2022/01/15 10:10:33;;;;;;;1.92;0.95;;;4.60;84.80;;;;;;6053072;23;20109;-76
2022/01/15 10:13:13;;;;;;;2.95;1.27;;;4.70;84.70;;;;;;6051473;23;20411;-76
2022/01/15 10:15:40;;;;;;;4.63;2.05;;;4.70;84.60;;;;;;6051367;23;20041;-74
2022/01/15 10:18:19;;;;;;;3.13;1.25;;;4.70;84.50;;;;;;6052229;23;20280;-74
2022/01/15 10:20:47;;;;;;;4.30;1.08;;;4.70;84.50;;;;;;6049587;23;20138;-74
2022/01/15 10:23:19;;;;;;;3.15;1.58;;;4.70;84.50;;;;;;6052032;23;20096;-74
2022/01/15 10:26:06;;;;;;;2.63;1.50;;;4.70;84.40;;;;;;6051703;23;20520;-74
2022/01/15 10:28:49;;;;;;;2.13;1.20;;;4.70;84.40;;;;;;6052976;23;20019;-73
2022/01/15 10:31:18;;;;;;;1.90;1.02;;;4.70;84.50;;;;;;6053222;23;20524;-74
2022/01/15 10:33:45;;;;;;;5.45;1.58;;;4.70;84.50;;;;;;6053910;23;20492;-75
2022/01/15 10:36:20;;;;;;;3.92;1.52;;;4.70;84.60;;;;;;6053261;23;20093;-74
2022/01/15 10:38:47;;;;;;;1.88;0.82;;;4.70;84.50;;;;;;6053272;23;20047;-75
2022/01/15 10:41:33;;;;;;;2.03;1.00;;;4.70;84.40;;;;;;6053759;23;20019;-73
2022/01/15 10:44:00;;;;;;;3.30;1.08;;;4.70;84.30;;;;;;6053619;23;20031;-73
2022/01/15 10:46:36;;;;;;;2.97;1.00;;;4.80;84.30;;;;;;6053824;23;20031;-73
2022/01/15 10:49:21;;;;;;;2.28;0.82;;;4.80;84.30;;;;;;6052536;23;20455;-74
2022/01/15 10:52:08;;;;;;;1.98;0.98;;;4.80;84.40;;;;;;6053258;23;20033;-75
2022/01/15 10:54:36;;;;;;;3.20;1.10;;;4.80;84.30;;;;;;6052989;23;20482;-74
2022/01/15 10:57:08;;;;;;;2.13;1.05;;;4.90;84.20;;;;;;6053874;23;20281;-75
2022/01/15 10:59:35;;;;;;;1.77;1.10;;;4.80;84.20;;;;;;6052975;23;20029;-75
2022/01/15 11:02:17;;;;;;;2.58;1.08;;;4.90;84.20;;;;;;6051151;23;20334;-75
2022/01/15 11:04:44;;;;;;;3.30;1.40;;;4.90;84.20;;;;;;6052225;23;20027;-75
2022/01/15 11:07:16;;;;;;;4.93;2.03;;;4.90;84.20;;;;;;6054662;23;20126;-74
2022/01/15 11:09:45;;;;;;;4.78;1.48;;;5.00;84.10;;;;;;6053299;23;20059;-74
2022/01/15 11:12:13;;;;;;;5.00;2.38;;;5.00;84.20;;;;;;6054435;23;20089;-74
2022/01/15 11:14:40;;;;;;;3.42;1.48;;;5.00;84.10;;;;;;6053288;23;20042;-73
2022/01/15 11:17:07;;;;;;;2.47;1.17;;;5.00;83.90;;;;;;6053011;23;20117;-74
2022/01/15 11:19:36;;;;;;;2.95;1.20;;;5.00;84.00;;;;;;6051037;23;20070;-75
2022/01/15 11:22:05;;;;;;;5.55;1.67;;;5.00;84.00;;;;;;6053979;23;20022;-75
2022/01/15 11:24:35;;;;;;;3.47;1.30;;;5.00;83.90;;;;;;6053739;23;20436;-75
2022/01/15 11:27:05;;;;;;;3.55;1.52;;;5.00;83.90;;;;;;6052992;23;20042;-75
2022/01/15 11:29:32;;;;;;;4.25;1.48;;;5.00;83.70;;;;;;6052007;23;20058;-73
2022/01/15 11:32:01;;;;;;;3.42;1.05;;;5.10;83.80;;;;;;6054440;23;20027;-76
2022/01/15 11:34:32;;;;;;;2.65;1.00;;;5.10;83.90;;;;;;6055060;23;20446;-75
2022/01/15 11:36:59;;;;;;;2.90;1.30;;;5.10;83.70;;;;;;6054531;23;20022;-76
2022/01/15 11:39:34;;;;;;;2.88;1.05;;;5.10;83.70;;;;;;6055151;23;20406;-75
2022/01/15 11:42:04;;;;;;;4.22;1.58;;;5.10;83.60;;;;;;6054922;23;20541;-74
2022/01/15 11:44:49;;;;;;;3.00;1.40;;;5.10;83.60;;;;;;6055480;23;20474;-72
2022/01/15 11:47:18;;;;;;;3.25;1.60;;;5.10;83.60;;;;;;6055391;23;20141;-74
2022/01/15 11:49:45;;;;;;;3.13;1.38;;;5.20;83.70;;;;;;6055366;23;20023;-75
2022/01/15 11:52:35;;;;;;;2.78;1.10;;;5.20;83.50;;;;;;6054726;23;20054;-73
2022/01/15 11:55:30;;;;;;;2.95;1.20;;;5.20;83.50;;;;;;6055475;23;20354;-72
2022/01/15 11:58:02;;;;;;;3.28;1.13;;;5.20;83.50;;;;;;6055304;23;20039;-73
2022/01/15 12:00:32;;;;;;;3.65;1.30;;;5.20;83.30;;;;;;6052857;23;20726;-76
2022/01/15 12:03:22;;;;;;;4.70;1.83;;;5.20;83.30;;;;;;6018299;23;20026;-74
2022/01/15 12:06:02;;;;;;;3.05;1.30;;;5.20;83.30;;;;;;781421;23;10003023;-75
2022/01/15 12:08:34;;;;;;;4.73;1.67;;;5.20;83.30;;;;;;6054947;23;20386;-74
2022/01/15 12:11:05;;;;;;;4.10;1.27;;;5.20;83.40;;;;;;6055765;23;20498;-72
2022/01/15 12:13:43;;;;;;;1.88;1.05;;;5.20;83.40;;;;;;6056800;23;20118;-74
2022/01/15 12:16:37;;;;;;;1.77;1.13;;;5.20;83.30;;;;;;6057109;23;20027;-73
2022/01/15 12:19:05;;;;;;;2.20;1.00;;;5.20;83.20;;;;;;6057285;23;20050;-73
2022/01/15 12:21:46;;;;;;;3.25;0.90;;;5.20;83.10;;;;;;6053778;23;20450;-72
2022/01/15 12:24:31;;;;;;;;;;;5.20;83.10;;;;;;6058360;23;20046;-71
2022/01/15 12:27:04;;;;;;;1.38;0.47;;;5.20;82.90;;;;;;6056687;23;19939;-73
2022/01/15 12:29:31;;;;;;;1.10;0.60;;;5.20;82.90;;;;;;6057761;23;20461;-74
2022/01/15 12:31:58;;;;;;;2.65;1.00;;;5.10;83.00;;;;;;6057092;23;20030;-74
2022/01/15 12:34:25;;;;;;;2.17;0.88;;;5.20;83.00;;;;;;6057131;23;20409;-74
2022/01/15 12:36:52;;;;;;;1.60;0.77;;;5.20;82.90;;;;;;6056068;23;20031;-73
2022/01/15 12:39:32;;;;;;;2.45;0.90;;;5.20;82.90;;;;;;6053319;23;20418;-74
2022/01/15 12:41:59;;;;;;;1.92;0.75;;;5.20;82.90;;;;;;6055428;23;20042;-73
2022/01/15 12:44:27;;;;;;;2.20;1.10;;;5.20;82.80;;;;;;6056917;23;20026;-74
2022/01/15 12:46:59;;;;;;;3.75;1.40;;;5.20;82.80;;;;;;6055693;23;20612;-73
2022/01/15 12:49:41;;;;;;;4.03;1.55;;;5.10;82.70;;;;;;6037576;23;20333;-74
2022/01/15 12:52:11;;;;;;;2.47;1.05;;;5.10;82.80;;;;;;6051767;23;20030;-73
2022/01/15 12:54:38;;;;;;;2.30;1.08;;;5.10;82.90;;;;;;6049037;23;20526;-74
2022/01/15 12:57:06;;;;;;;2.63;1.30;;;5.10;83.00;;;;;;6070104;23;20437;-73
2022/01/15 12:59:38;;;;;;;4.05;1.90;;;5.10;83.00;;;;;;6050385;23;20042;-73
2022/01/15 13:02:05;;;;;;;4.75;2.13;;;5.20;83.00;;;;;;6052015;23;20031;-73
2022/01/15 13:04:32;;;;;;;5.22;1.80;;;5.20;83.10;;;;;;6054758;23;20075;-74
2022/01/15 13:07:01;;;;;;;4.75;1.85;;;5.20;83.10;;;;;;6052931;23;20022;-74
2022/01/15 13:09:40;;;;;;;4.97;1.92;;;5.20;83.10;;;;;;6051804;23;20030;-74
2022/01/15 13:12:11;;;;;;;6.35;1.60;;;5.20;82.80;;;;;;6052751;23;20035;-74
2022/01/15 13:14:41;;;;;;;4.32;1.58;;;5.20;82.90;;;;;;6055120;23;20015;-72
2022/01/15 13:17:21;;;;;;;5.32;2.28;;;5.20;83.00;;;;;;6056151;23;20553;-73
2022/01/15 13:19:48;;;;;;;6.88;2.60;;;5.20;83.00;;;;;;6056103;23;20113;-73